Time;durP1;ratioP1;P1;durP2;ratioP2;P2;SDS_P1;SDS_P2;PMS_P1;PMS_P2;Temp;Humidity;BMP_temperature;BMP_pressure;BME280_temperature;BME280_humidity;BME280_pressure;Samples;Min_cycle;Max_cycle;Signal;HPM_P1;HPM_P2
2021/10/31 00:01:12;;;;;;;11.67;10.47;;;12.90;99.90;;;;;;5032876;28;20439;-71
2021/10/31 00:03:38;;;;;;;12.00;10.90;;;12.90;99.90;;;;;;5032735;28;20489;-71
2021/10/31 00:06:03;;;;;;;13.57;11.47;;;12.90;99.90;;;;;;5032911;28;20395;-71
2021/10/31 00:08:29;;;;;;;12.60;11.33;;;12.90;99.90;;;;;;5032622;28;20408;-71
2021/10/31 00:10:57;;;;;;;13.67;11.03;;;12.90;99.90;;;;;;5033177;28;20259;-71
2021/10/31 00:13:23;;;;;;;12.50;11.20;;;12.90;99.90;;;;;;5032648;28;20156;-71
2021/10/31 00:15:48;;;;;;;12.50;11.30;;;12.80;99.90;;;;;;5033015;28;20931;-70
2021/10/31 00:18:14;;;;;;;12.70;11.40;;;12.80;99.90;;;;;;5032506;28;20431;-71
2021/10/31 00:20:40;;;;;;;13.03;11.73;;;12.80;99.90;;;;;;5032667;28;20157;-71
2021/10/31 00:23:05;;;;;;;13.13;11.80;;;12.80;99.90;;;;;;5040472;28;20203;-71
2021/10/31 00:25:31;;;;;;;11.37;10.37;;;12.80;99.90;;;;;;5052229;28;20259;-71
2021/10/31 00:27:56;;;;;;;12.67;11.33;;;12.70;99.90;;;;;;5048634;28;20165;-70
2021/10/31 00:30:22;;;;;;;12.50;11.40;;;12.80;99.90;;;;;;5041525;28;20168;-70
2021/10/31 00:32:47;;;;;;;11.67;10.57;;;12.80;99.90;;;;;;5036971;28;20184;-71
2021/10/31 00:35:13;;;;;;;12.47;11.33;;;12.70;99.90;;;;;;5032668;28;20177;-71
2021/10/31 00:37:38;;;;;;;13.97;12.67;;;12.70;99.90;;;;;;5032267;28;20589;-71
2021/10/31 00:40:05;;;;;;;13.03;11.73;;;12.70;99.90;;;;;;5032484;28;20196;-71
2021/10/31 00:42:30;;;;;;;13.40;12.00;;;12.60;99.90;;;;;;5031981;28;20189;-71
2021/10/31 00:44:56;;;;;;;12.97;11.33;;;12.60;99.90;;;;;;5032369;28;20868;-71
2021/10/31 00:47:21;;;;;;;11.80;10.67;;;12.60;99.90;;;;;;5050231;28;20648;-71
2021/10/31 00:49:47;;;;;;;11.43;10.30;;;12.50;99.90;;;;;;5036953;28;20195;-70
2021/10/31 00:52:15;;;;;;;12.53;11.23;;;12.50;99.90;;;;;;5032311;28;20157;-71
2021/10/31 00:54:41;;;;;;;13.10;11.80;;;12.40;99.90;;;;;;5032084;28;20521;-71
2021/10/31 00:57:07;;;;;;;11.20;10.10;;;12.40;99.90;;;;;;5031688;28;20415;-73
2021/10/31 00:59:32;;;;;;;14.17;10.67;;;12.30;99.90;;;;;;5033105;28;20197;-72
2021/10/31 01:01:59;;;;;;;10.87;9.87;;;12.30;99.90;;;;;;5050813;28;20581;-72
2021/10/31 01:04:26;;;;;;;12.57;11.37;;;12.30;99.90;;;;;;5034514;28;20201;-72
2021/10/31 01:12:46;;;;;;;12.10;10.47;;;12.20;99.90;;;;;;5069336;28;20959;-72
2021/10/31 01:18:31;;;;;;;11.73;10.57;;;12.10;99.90;;;;;;5069420;28;20542;-71
2021/10/31 01:24:24;;;;;;;13.57;12.40;;;12.00;99.90;;;;;;5053375;28;20543;-72
2021/10/31 01:27:16;;;;;;;15.63;13.23;;;11.90;99.90;;;;;;5048461;28;20403;-72
2021/10/31 01:35:45;;;;;;;14.23;12.47;;;11.90;99.90;;;;;;5105286;27;20514;-71
2021/10/31 01:38:43;;;;;;;15.17;13.07;;;11.80;99.90;;;;;;5074487;28;20442;-71
2021/10/31 01:41:16;;;;;;;15.20;12.00;;;11.80;99.90;;;;;;5058101;28;20436;-71
2021/10/31 01:44:09;;;;;;;13.60;12.30;;;11.80;99.90;;;;;;5069168;28;20386;-71
2021/10/31 01:47:00;;;;;;;15.47;13.13;;;11.80;99.90;;;;;;5068212;28;20386;-71
2021/10/31 01:52:11;;;;;;;13.13;11.70;;;11.80;99.90;;;;;;5069306;28;21056;-70
2021/10/31 01:54:45;;;;;;;14.50;13.00;;;11.80;99.90;;;;;;5069310;28;20413;-70
2021/10/31 01:57:14;;;;;;;15.73;14.03;;;11.80;99.90;;;;;;5059181;28;20946;-72
2021/10/31 01:59:44;;;;;;;15.40;13.90;;;11.80;99.90;;;;;;5051380;28;20425;-72
2021/10/31 02:02:11;;;;;;;15.20;13.60;;;11.80;99.90;;;;;;5049115;28;20416;-72
2021/10/31 02:04:38;;;;;;;17.73;13.63;;;11.80;99.90;;;;;;5049205;28;20696;-71
2021/10/31 02:07:06;;;;;;;16.30;14.70;;;11.80;99.90;;;;;;5048945;28;20395;-71
2021/10/31 02:09:32;;;;;;;16.30;13.70;;;11.80;99.90;;;;;;5049132;28;20395;-71
2021/10/31 02:12:00;;;;;;;16.90;14.50;;;11.80;99.90;;;;;;5048934;28;20857;-72
2021/10/31 02:14:26;;;;;;;16.53;14.70;;;11.80;99.90;;;;;;5049459;28;20414;-72
2021/10/31 02:16:55;;;;;;;14.47;13.17;;;11.80;99.90;;;;;;5048973;28;20405;-72
2021/10/31 02:19:35;;;;;;;15.33;13.83;;;11.90;99.90;;;;;;5048945;28;20860;-72
2021/10/31 02:22:04;;;;;;;15.60;14.10;;;11.90;99.90;;;;;;5049012;28;20862;-72
2021/10/31 02:24:30;;;;;;;16.53;14.67;;;11.90;99.90;;;;;;5048798;28;20418;-72
2021/10/31 02:26:56;;;;;;;16.20;14.47;;;12.00;99.90;;;;;;5048770;28;20431;-72
2021/10/31 02:29:22;;;;;;;16.87;13.70;;;12.00;99.90;;;;;;5049565;28;20430;-72
2021/10/31 02:31:48;;;;;;;15.70;13.60;;;12.00;99.90;;;;;;5053007;28;20791;-72
2021/10/31 02:34:14;;;;;;;13.30;11.90;;;12.00;99.90;;;;;;5048738;28;20184;-71
2021/10/31 02:36:40;;;;;;;13.27;12.07;;;12.10;99.90;;;;;;5048527;28;20246;-72
2021/10/31 02:39:07;;;;;;;13.33;11.97;;;12.10;99.90;;;;;;5048325;28;20411;-71
2021/10/31 02:41:34;;;;;;;12.20;10.67;;;12.10;99.90;;;;;;5048413;28;20548;-71
2021/10/31 02:44:01;;;;;;;12.30;10.80;;;12.10;99.90;;;;;;5048524;28;20391;-72
2021/10/31 02:46:35;;;;;;;11.70;9.50;;;12.10;99.90;;;;;;5048416;28;20449;-72
2021/10/31 02:49:04;;;;;;;11.60;9.37;;;12.10;99.90;;;;;;5048868;28;20433;-72
2021/10/31 02:54:53;;;;;;;10.30;9.20;;;12.20;99.90;;;;;;5069381;28;20558;-72
2021/10/31 02:57:30;;;;;;;12.17;9.00;;;12.20;99.90;;;;;;5068384;28;20409;-72
2021/10/31 03:00:02;;;;;;;9.77;8.83;;;12.10;99.90;;;;;;5063141;28;20795;-72
2021/10/31 03:02:31;;;;;;;12.47;9.27;;;12.20;99.90;;;;;;5049442;28;20453;-72
2021/10/31 03:04:56;;;;;;;8.57;7.67;;;12.10;99.90;;;;;;5056954;28;20405;-72
2021/10/31 03:07:22;;;;;;;10.87;9.80;;;12.10;99.90;;;;;;5068925;28;20478;-72
2021/10/31 03:09:49;;;;;;;11.40;10.20;;;12.10;99.90;;;;;;5068968;28;20191;-71
2021/10/31 03:12:15;;;;;;;10.60;9.17;;;12.10;99.90;;;;;;5068853;28;20390;-72
2021/10/31 03:14:41;;;;;;;9.67;8.67;;;12.10;99.90;;;;;;5068672;28;20398;-72
2021/10/31 03:17:07;;;;;;;8.73;8.03;;;12.10;99.90;;;;;;5068947;28;20398;-72
2021/10/31 03:19:33;;;;;;;9.37;8.40;;;12.10;99.90;;;;;;5068946;28;20239;-72
2021/10/31 03:21:59;;;;;;;8.70;7.70;;;12.20;99.90;;;;;;5067885;28;20426;-72
2021/10/31 03:24:25;;;;;;;8.03;7.17;;;12.20;99.90;;;;;;5068952;28;20433;-72
2021/10/31 03:26:50;;;;;;;7.93;7.10;;;12.20;99.90;;;;;;5068682;28;20397;-72
2021/10/31 03:29:16;;;;;;;7.30;6.60;;;12.10;99.90;;;;;;5065110;28;20703;-72
2021/10/31 03:31:42;;;;;;;8.67;7.10;;;12.10;99.90;;;;;;5048516;28;20257;-71
2021/10/31 03:34:08;;;;;;;9.43;6.90;;;12.10;99.90;;;;;;5048559;28;20208;-71
2021/10/31 03:36:33;;;;;;;7.23;6.57;;;12.10;99.90;;;;;;5048918;28;20395;-72
2021/10/31 03:38:59;;;;;;;7.70;7.00;;;12.10;99.90;;;;;;5056096;28;20184;-72
2021/10/31 03:41:24;;;;;;;9.47;6.93;;;12.10;99.90;;;;;;5048575;28;20247;-72
2021/10/31 03:43:50;;;;;;;8.37;6.03;;;12.10;99.90;;;;;;5048396;28;20173;-71
2021/10/31 03:46:16;;;;;;;8.70;6.53;;;12.10;99.90;;;;;;5048476;28;20168;-72
2021/10/31 03:48:41;;;;;;;7.30;6.60;;;12.00;99.90;;;;;;5048953;28;20168;-69
2021/10/31 03:51:07;;;;;;;7.67;6.60;;;12.00;99.90;;;;;;5048664;28;20161;-81
2021/10/31 03:53:33;;;;;;;7.10;5.50;;;12.00;99.90;;;;;;5048073;28;20261;-81
2021/10/31 03:55:59;;;;;;;6.47;5.87;;;12.00;99.90;;;;;;5049598;28;20430;-81
2021/10/31 03:58:24;;;;;;;5.83;5.33;;;12.00;99.90;;;;;;5048195;28;20417;-80
2021/10/31 04:00:50;;;;;;;6.37;5.77;;;12.00;99.90;;;;;;5049063;28;20211;-82
2021/10/31 04:03:16;;;;;;;6.90;6.20;;;12.10;99.90;;;;;;5048472;28;20557;-82
2021/10/31 04:05:41;;;;;;;6.17;5.67;;;12.00;99.90;;;;;;5035680;28;20169;-80
2021/10/31 04:08:07;;;;;;;7.17;5.70;;;12.10;99.90;;;;;;5034778;28;20161;-81
2021/10/31 04:10:33;;;;;;;6.73;5.00;;;12.10;99.90;;;;;;5034752;28;20153;-82
2021/10/31 04:12:58;;;;;;;6.87;5.37;;;12.10;99.90;;;;;;5035094;28;20642;-82
2021/10/31 04:15:24;;;;;;;6.93;6.23;;;12.10;99.90;;;;;;5035625;28;20239;-81
2021/10/31 04:17:50;;;;;;;8.87;6.60;;;12.10;99.90;;;;;;5034830;28;20537;-82
2021/10/31 04:20:16;;;;;;;6.20;5.70;;;12.10;99.90;;;;;;5034607;28;20408;-82
2021/10/31 04:22:42;;;;;;;8.30;6.10;;;12.00;99.90;;;;;;5034427;28;20404;-81
2021/10/31 04:25:08;;;;;;;8.83;6.30;;;12.00;99.90;;;;;;5037323;28;20283;-82
2021/10/31 04:27:35;;;;;;;5.90;5.40;;;12.00;99.90;;;;;;5054401;28;20971;-81
2021/10/31 04:30:00;;;;;;;8.00;6.17;;;12.00;99.90;;;;;;5046623;28;20506;-81
2021/10/31 04:32:26;;;;;;;6.83;5.10;;;12.00;99.90;;;;;;5034222;28;20897;-82
2021/10/31 04:34:52;;;;;;;5.30;4.90;;;11.90;99.90;;;;;;5034298;28;20240;-82
2021/10/31 04:37:17;;;;;;;5.60;5.10;;;11.90;99.90;;;;;;5034309;28;20236;-82
2021/10/31 04:39:44;;;;;;;7.10;5.33;;;11.90;99.90;;;;;;5034015;28;20169;-82
2021/10/31 04:42:11;;;;;;;7.43;5.47;;;11.90;99.90;;;;;;5034339;28;20402;-82
2021/10/31 04:44:37;;;;;;;6.07;5.50;;;11.90;99.90;;;;;;5034784;28;20877;-81
2021/10/31 04:47:04;;;;;;;5.83;5.33;;;11.90;99.90;;;;;;5042641;28;20476;-82
2021/10/31 04:49:30;;;;;;;6.30;5.10;;;11.80;99.90;;;;;;5053779;28;20395;-81
2021/10/31 04:51:57;;;;;;;5.73;5.13;;;11.80;99.90;;;;;;5053895;28;20955;-82
2021/10/31 04:54:23;;;;;;;5.83;5.33;;;11.80;99.90;;;;;;5053498;28;20497;-82
2021/10/31 04:56:48;;;;;;;6.10;5.60;;;11.70;99.90;;;;;;5053843;28;20425;-81
2021/10/31 04:59:14;;;;;;;5.33;4.83;;;11.70;99.90;;;;;;5054681;28;20430;-82
2021/10/31 05:01:40;;;;;;;7.20;5.83;;;11.70;99.90;;;;;;5052447;28;20578;-81
2021/10/31 05:04:05;;;;;;;5.47;4.90;;;11.60;99.90;;;;;;5044159;28;20187;-80
2021/10/31 05:06:31;;;;;;;5.10;4.60;;;11.60;99.90;;;;;;5033965;28;20176;-82
2021/10/31 05:08:57;;;;;;;4.57;4.17;;;11.50;99.90;;;;;;5033752;28;20161;-81
2021/10/31 05:11:23;;;;;;;6.80;4.40;;;11.50;99.90;;;;;;5033724;28;20176;-81
2021/10/31 05:13:49;;;;;;;5.90;5.30;;;11.50;99.90;;;;;;5034452;28;20461;-83
2021/10/31 05:16:14;;;;;;;5.50;5.00;;;11.50;99.90;;;;;;5032820;28;20607;-82
2021/10/31 05:18:40;;;;;;;5.40;4.90;;;11.40;99.90;;;;;;5033481;28;20630;-80
2021/10/31 05:21:07;;;;;;;5.50;5.00;;;11.40;99.90;;;;;;5034132;28;20172;-82
2021/10/31 05:23:33;;;;;;;6.63;5.53;;;11.40;99.90;;;;;;5033451;28;20161;-82
2021/10/31 05:25:59;;;;;;;5.40;4.90;;;11.40;99.90;;;;;;5045143;28;20437;-82
2021/10/31 05:28:25;;;;;;;5.87;5.33;;;11.40;99.90;;;;;;5053987;28;20501;-82
2021/10/31 05:30:52;;;;;;;6.33;5.70;;;11.40;99.90;;;;;;5036893;28;20695;-82
2021/10/31 05:33:19;;;;;;;6.47;5.90;;;11.30;99.90;;;;;;5033139;28;20447;-81
2021/10/31 05:35:45;;;;;;;7.53;6.83;;;11.30;99.90;;;;;;5033013;28;20399;-81
2021/10/31 05:38:11;;;;;;;9.60;6.27;;;11.30;99.90;;;;;;5043081;28;20910;-82
2021/10/31 05:40:37;;;;;;;8.70;7.97;;;11.30;99.90;;;;;;5052963;28;20153;-83
2021/10/31 05:43:03;;;;;;;7.90;7.20;;;11.20;99.90;;;;;;5053933;28;20964;-83
2021/10/31 05:45:29;;;;;;;8.07;7.27;;;11.20;99.90;;;;;;5053143;28;20680;-82
2021/10/31 05:47:55;;;;;;;7.80;7.10;;;11.20;99.90;;;;;;5052962;28;20164;-82
2021/10/31 05:50:23;;;;;;;9.27;8.40;;;11.20;99.90;;;;;;5052643;28;20489;-82
2021/10/31 05:52:49;;;;;;;8.53;7.73;;;11.20;99.90;;;;;;5052587;28;20489;-82
2021/10/31 05:55:16;;;;;;;7.73;7.03;;;11.20;99.90;;;;;;5046087;28;20485;-81
2021/10/31 05:57:42;;;;;;;8.03;7.33;;;11.20;99.90;;;;;;5033862;28;20625;-83
2021/10/31 06:00:10;;;;;;;8.10;7.40;;;11.10;99.90;;;;;;5032457;28;20951;-82
2021/10/31 06:02:35;;;;;;;8.57;7.87;;;11.10;99.90;;;;;;5032702;28;20395;-82
2021/10/31 06:05:03;;;;;;;8.40;7.50;;;11.20;99.90;;;;;;5032592;28;20416;-83
2021/10/31 06:07:29;;;;;;;9.23;7.73;;;11.10;99.90;;;;;;5032530;28;20648;-81
2021/10/31 06:09:55;;;;;;;9.30;8.50;;;11.10;99.90;;;;;;5032834;28;20395;-82
2021/10/31 06:12:20;;;;;;;7.73;7.03;;;11.20;99.90;;;;;;5034114;28;20257;-82
2021/10/31 06:14:46;;;;;;;7.40;6.70;;;11.10;99.90;;;;;;5032527;28;20244;-79
2021/10/31 06:17:12;;;;;;;6.83;6.30;;;11.20;99.90;;;;;;5032355;28;20255;-82
2021/10/31 06:19:38;;;;;;;7.37;6.60;;;11.20;99.90;;;;;;5032551;28;20240;-81
2021/10/31 06:22:05;;;;;;;6.70;6.10;;;11.20;99.90;;;;;;5032439;28;20872;-80
2021/10/31 06:24:31;;;;;;;6.60;6.00;;;11.20;99.90;;;;;;5032511;28;20196;-78
2021/10/31 06:26:57;;;;;;;7.23;6.63;;;11.20;99.90;;;;;;5032791;28;20443;-83
2021/10/31 06:29:22;;;;;;;6.60;6.10;;;11.20;99.90;;;;;;5033890;28;20191;-81
2021/10/31 06:31:48;;;;;;;6.70;6.10;;;11.10;99.90;;;;;;5052008;28;20403;-81
2021/10/31 06:34:14;;;;;;;7.67;7.07;;;11.10;99.90;;;;;;5052176;28;20549;-80
2021/10/31 06:36:40;;;;;;;9.03;7.03;;;11.10;99.90;;;;;;5052236;28;20214;-81
2021/10/31 06:39:06;;;;;;;7.03;6.43;;;11.10;99.90;;;;;;5051933;28;20411;-81
2021/10/31 06:41:32;;;;;;;11.73;6.63;;;11.10;99.90;;;;;;5052849;28;20156;-82
2021/10/31 06:43:58;;;;;;;6.73;6.10;;;11.10;99.90;;;;;;5052095;28;20906;-82
2021/10/31 06:46:25;;;;;;;6.90;6.30;;;11.10;99.90;;;;;;5040155;28;20420;-82
2021/10/31 06:48:51;;;;;;;6.20;5.70;;;11.10;99.90;;;;;;5032158;28;20153;-83
2021/10/31 06:51:17;;;;;;;6.90;5.80;;;11.10;99.90;;;;;;5031809;28;20490;-82
2021/10/31 06:53:43;;;;;;;5.43;4.90;;;11.00;99.90;;;;;;5031887;28;21047;-81
2021/10/31 06:56:10;;;;;;;5.60;5.10;;;11.00;99.90;;;;;;5047768;28;20222;-82
2021/10/31 06:58:36;;;;;;;5.00;4.60;;;11.00;99.90;;;;;;5051751;28;20601;-81
2021/10/31 07:01:01;;;;;;;6.43;4.10;;;11.10;99.90;;;;;;5037813;28;20513;-82
2021/10/31 07:03:27;;;;;;;4.83;4.33;;;11.00;99.90;;;;;;5044125;28;20187;-81
2021/10/31 07:05:53;;;;;;;5.17;4.37;;;11.10;99.90;;;;;;5052258;28;20167;-83
2021/10/31 07:08:18;;;;;;;3.97;3.67;;;11.10;99.90;;;;;;5051987;28;20162;-82
2021/10/31 07:10:44;;;;;;;3.93;3.63;;;11.10;99.90;;;;;;5052472;28;20192;-82
2021/10/31 07:13:09;;;;;;;4.63;3.70;;;11.20;99.90;;;;;;5051780;28;20207;-83
2021/10/31 07:15:35;;;;;;;4.60;3.90;;;11.20;99.90;;;;;;5051802;28;20156;-83
2021/10/31 07:18:00;;;;;;;4.77;4.27;;;11.20;99.90;;;;;;5051753;28;20159;-83
2021/10/31 07:20:26;;;;;;;4.47;4.07;;;11.20;99.90;;;;;;5051114;28;20252;-82
2021/10/31 07:22:53;;;;;;;4.63;3.77;;;11.30;99.90;;;;;;5051936;28;20160;-82
2021/10/31 07:25:20;;;;;;;5.30;3.53;;;11.30;99.90;;;;;;5044353;28;20181;-82
2021/10/31 07:27:46;;;;;;;4.70;3.67;;;11.30;99.90;;;;;;5031490;28;20422;-81
2021/10/31 07:30:12;;;;;;;3.87;3.57;;;11.40;99.90;;;;;;5031824;28;20416;-82
2021/10/31 07:32:38;;;;;;;3.80;3.50;;;11.40;99.90;;;;;;5031650;28;20590;-82
2021/10/31 07:35:06;;;;;;;4.27;3.87;;;11.50;99.90;;;;;;5031884;28;20431;-82
2021/10/31 07:37:32;;;;;;;3.97;3.57;;;11.50;99.90;;;;;;5032488;28;20415;-83
2021/10/31 07:39:59;;;;;;;3.80;3.50;;;11.60;99.90;;;;;;5035185;28;20408;-82
2021/10/31 07:42:28;;;;;;;4.30;3.80;;;11.60;99.90;;;;;;5035486;28;20418;-82
2021/10/31 07:44:55;;;;;;;4.93;3.77;;;11.70;99.90;;;;;;5035383;28;20380;-79
2021/10/31 07:47:21;;;;;;;3.77;3.17;;;11.70;99.90;;;;;;5035335;28;20442;-83
2021/10/31 07:49:46;;;;;;;5.10;3.70;;;11.80;99.90;;;;;;5035293;28;20419;-84
2021/10/31 07:52:12;;;;;;;3.30;2.97;;;11.80;99.90;;;;;;5035172;28;20153;-83
2021/10/31 07:54:37;;;;;;;4.47;3.20;;;11.80;99.90;;;;;;5038500;28;20586;-84
2021/10/31 07:57:04;;;;;;;3.50;3.20;;;11.80;99.90;;;;;;5055162;28;20161;-82
2021/10/31 07:59:30;;;;;;;3.17;2.97;;;11.80;99.90;;;;;;5053847;28;20183;-84
2021/10/31 08:01:56;;;;;;;2.97;2.73;;;11.90;99.90;;;;;;5034991;28;20392;-83
2021/10/31 08:04:23;;;;;;;5.40;3.83;;;11.90;99.90;;;;;;5034993;28;20200;-84
2021/10/31 08:06:49;;;;;;;4.80;2.47;;;11.90;99.90;;;;;;5035201;28;20399;-83
2021/10/31 08:09:14;;;;;;;3.17;2.90;;;11.90;99.90;;;;;;5036852;28;20404;-82
2021/10/31 08:11:43;;;;;;;3.00;2.70;;;11.90;99.90;;;;;;5048755;28;20449;-82
2021/10/31 08:14:10;;;;;;;2.90;2.70;;;11.90;99.90;;;;;;5054771;28;20195;-83
2021/10/31 08:16:36;;;;;;;2.90;2.70;;;11.90;99.90;;;;;;5054890;28;20407;-82
2021/10/31 08:19:03;;;;;;;2.83;2.60;;;11.90;99.90;;;;;;5054858;28;20586;-82
2021/10/31 08:21:29;;;;;;;2.77;2.57;;;11.90;99.90;;;;;;5054748;28;20902;-84
2021/10/31 08:23:55;;;;;;;4.20;2.80;;;11.90;99.90;;;;;;5055150;28;20448;-82
2021/10/31 08:26:21;;;;;;;2.90;2.60;;;11.90;99.90;;;;;;5038136;28;20423;-82
2021/10/31 08:28:48;;;;;;;5.30;3.30;;;12.00;99.90;;;;;;5049612;28;20187;-84
2021/10/31 08:31:16;;;;;;;4.23;2.77;;;12.00;99.90;;;;;;5053247;28;20168;-83
2021/10/31 08:33:44;;;;;;;2.50;2.30;;;12.00;99.90;;;;;;5054436;28;20862;-84
2021/10/31 08:36:10;;;;;;;5.07;3.20;;;12.00;99.90;;;;;;5054705;28;20414;-83
2021/10/31 08:38:36;;;;;;;3.40;3.10;;;12.10;99.90;;;;;;5055138;28;20407;-83
2021/10/31 08:41:02;;;;;;;2.80;2.57;;;12.10;99.90;;;;;;5054212;28;20390;-82
2021/10/31 08:43:28;;;;;;;2.60;2.40;;;12.20;99.90;;;;;;5054275;28;20161;-82
2021/10/31 08:45:53;;;;;;;2.10;2.00;;;12.20;99.90;;;;;;5038016;28;20418;-82
2021/10/31 08:48:20;;;;;;;3.63;2.10;;;12.30;99.90;;;;;;5035066;28;20570;-83
2021/10/31 08:50:46;;;;;;;5.97;2.80;;;12.40;99.90;;;;;;5034291;28;20172;-84
2021/10/31 08:53:13;;;;;;;3.40;2.83;;;12.40;99.90;;;;;;5035423;28;20829;-81
2021/10/31 08:55:40;;;;;;;3.03;2.73;;;12.50;99.90;;;;;;5034064;28;20395;-83
2021/10/31 08:58:07;;;;;;;2.60;2.40;;;12.60;99.90;;;;;;5034192;28;20392;-84
2021/10/31 09:00:33;;;;;;;3.37;2.30;;;12.70;99.90;;;;;;5044989;28;20485;-81
2021/10/31 09:02:59;;;;;;;3.13;2.63;;;12.80;99.90;;;;;;5036822;28;20427;-83
2021/10/31 09:05:26;;;;;;;2.10;2.00;;;12.90;99.90;;;;;;5034231;28;20252;-83
2021/10/31 09:07:51;;;;;;;3.43;2.30;;;12.90;99.90;;;;;;5035542;28;20388;-83
2021/10/31 09:10:19;;;;;;;3.37;2.23;;;13.00;99.90;;;;;;5033957;28;20415;-83
2021/10/31 09:12:45;;;;;;;4.87;2.33;;;13.10;99.90;;;;;;5033701;28;20189;-84
2021/10/31 09:15:11;;;;;;;4.80;2.60;;;13.20;99.90;;;;;;5033622;28;20399;-84
2021/10/31 09:17:37;;;;;;;3.10;2.40;;;13.20;99.90;;;;;;5034142;28;20203;-83
2021/10/31 09:20:04;;;;;;;2.20;1.90;;;13.30;99.90;;;;;;5048566;28;20180;-82
2021/10/31 09:22:31;;;;;;;7.53;2.40;;;13.30;99.90;;;;;;5055766;28;20393;-83
2021/10/31 09:24:57;;;;;;;3.83;2.10;;;13.40;99.90;;;;;;5053544;28;20388;-81
2021/10/31 09:27:23;;;;;;;2.10;2.00;;;13.50;99.90;;;;;;5053069;28;20417;-83
2021/10/31 09:29:48;;;;;;;3.70;3.40;;;13.50;99.90;;;;;;5047871;28;20777;-82
2021/10/31 09:32:14;;;;;;;4.70;3.97;;;13.60;99.90;;;;;;5033307;28;20170;-87
2021/10/31 09:34:39;;;;;;;7.23;3.50;;;13.70;99.90;;;;;;5033270;28;20165;-85
2021/10/31 09:37:05;;;;;;;4.80;4.40;;;13.80;99.90;;;;;;5053747;28;20642;-81
2021/10/31 09:39:31;;;;;;;3.37;2.60;;;13.90;99.90;;;;;;5053512;28;20182;-80
2021/10/31 09:41:57;;;;;;;2.73;2.10;;;14.00;99.90;;;;;;5052827;28;20216;-82
2021/10/31 09:44:29;;;;;;;2.20;2.03;;;13.90;99.90;;;;;;5053101;28;20405;-84
2021/10/31 09:46:55;;;;;;;3.00;1.90;;;14.00;99.90;;;;;;5052944;28;20422;-84
2021/10/31 09:49:22;;;;;;;2.40;2.20;;;14.00;99.90;;;;;;5038784;28;20426;-83
2021/10/31 09:51:50;;;;;;;5.80;2.13;;;14.10;99.90;;;;;;5035210;28;20631;-82
2021/10/31 09:54:17;;;;;;;5.80;4.77;;;14.10;99.90;;;;;;5033485;28;20500;-83
2021/10/31 09:56:42;;;;;;;5.87;3.60;;;14.10;99.90;;;;;;5032789;28;20532;-84
2021/10/31 09:59:11;;;;;;;4.97;3.67;;;14.10;99.90;;;;;;5034338;28;20517;-84
2021/10/31 10:01:57;;;;;;;5.37;3.20;;;14.20;99.90;;;;;;5052484;28;20396;-85
2021/10/31 10:04:50;;;;;;;4.83;4.20;;;14.30;99.90;;;;;;5052878;28;20902;-83
2021/10/31 10:07:18;;;;;;;4.07;3.70;;;14.40;99.90;;;;;;5051615;28;20402;-84
2021/10/31 10:09:54;;;;;;;3.93;3.57;;;14.50;99.90;;;;;;5045992;28;20466;-82
2021/10/31 10:12:22;;;;;;;3.10;2.90;;;14.60;99.90;;;;;;5032472;28;20493;-82
2021/10/31 10:14:51;;;;;;;4.50;3.20;;;14.60;99.90;;;;;;5032565;28;20923;-85
2021/10/31 10:17:17;;;;;;;3.90;3.50;;;14.60;99.90;;;;;;5032480;28;20763;-82
2021/10/31 10:19:54;;;;;;;4.10;3.70;;;14.70;99.90;;;;;;5048802;28;20418;-83
2021/10/31 10:22:23;;;;;;;4.60;3.47;;;14.70;99.90;;;;;;5052580;28;20652;-83
2021/10/31 10:24:53;;;;;;;5.07;4.67;;;14.80;99.90;;;;;;5050882;28;20414;-83
2021/10/31 10:27:23;;;;;;;4.40;3.70;;;14.80;99.90;;;;;;5040606;28;20424;-84
2021/10/31 10:29:50;;;;;;;5.17;4.67;;;14.80;99.90;;;;;;5032223;28;20411;-83
2021/10/31 10:32:18;;;;;;;4.27;3.87;;;14.80;99.90;;;;;;5032233;28;20384;-83
2021/10/31 10:34:48;;;;;;;4.10;3.70;;;14.80;99.90;;;;;;5033872;28;20419;-83
2021/10/31 10:37:21;;;;;;;2.70;2.50;;;14.80;99.90;;;;;;5032234;28;20888;-84
2021/10/31 10:39:56;;;;;;;4.47;3.57;;;14.80;99.90;;;;;;5032149;28;20444;-85
2021/10/31 10:42:26;;;;;;;3.30;3.00;;;14.80;99.90;;;;;;5032112;28;20390;-84
2021/10/31 10:44:58;;;;;;;3.33;3.13;;;14.90;99.90;;;;;;5047934;28;20626;-84
2021/10/31 10:47:24;;;;;;;6.83;3.57;;;15.00;99.90;;;;;;5052179;28;20406;-82
2021/10/31 10:49:52;;;;;;;3.70;3.40;;;15.10;99.90;;;;;;5052347;28;20429;-85
2021/10/31 10:55:17;;;;;;;4.60;3.50;;;15.10;99.90;;;;;;5193736;27;20939;-75
2021/10/31 10:57:45;;;;;;;3.20;2.70;;;15.30;99.90;;;;;;5172401;27;20389;-74
2021/10/31 11:03:13;;;;;;;3.70;3.30;;;15.30;99.90;;;;;;5130972;27;21089;-74
2021/10/31 11:05:41;;;;;;;5.57;2.50;;;15.40;99.90;;;;;;5129410;28;20395;-73
2021/10/31 11:08:10;;;;;;;5.50;3.30;;;15.40;99.90;;;;;;5130757;28;20472;-74
2021/10/31 11:10:42;;;;;;;8.47;7.00;;;15.40;99.90;;;;;;5130763;27;20406;-73
2021/10/31 11:13:08;;;;;;;5.23;4.80;;;15.40;99.90;;;;;;5130830;28;20383;-73
2021/10/31 11:15:34;;;;;;;8.60;6.77;;;15.40;99.90;;;;;;5131109;28;20828;-73
2021/10/31 11:18:03;;;;;;;4.10;3.70;;;15.50;99.90;;;;;;5121585;28;20260;-74
2021/10/31 11:20:33;;;;;;;3.07;2.67;;;15.60;99.90;;;;;;5110015;28;20430;-74
2021/10/31 11:23:02;;;;;;;4.20;3.43;;;15.60;99.90;;;;;;5109996;28;20487;-73
2021/10/31 11:25:31;;;;;;;3.60;3.13;;;15.60;99.90;;;;;;5122894;28;20482;-74
2021/10/31 11:27:59;;;;;;;6.73;3.60;;;15.60;99.90;;;;;;5130776;28;20747;-73
2021/10/31 11:30:26;;;;;;;3.37;2.90;;;15.60;99.90;;;;;;5130379;28;20947;-73
2021/10/31 11:32:53;;;;;;;3.90;3.60;;;15.70;99.90;;;;;;5130827;28;20430;-73
2021/10/31 11:35:20;;;;;;;2.93;2.43;;;15.70;99.90;;;;;;5129314;28;20407;-76
2021/10/31 11:40:32;;;;;;;6.30;3.43;;;15.80;99.90;;;;;;5089662;27;20894;-73
2021/10/31 11:42:59;;;;;;;4.27;2.63;;;15.80;99.90;;;;;;5090259;28;20397;-73
2021/10/31 11:45:31;;;;;;;3.87;2.93;;;15.70;99.90;;;;;;5090066;28;20393;-73
2021/10/31 11:48:18;;;;;;;3.43;3.13;;;15.80;99.90;;;;;;5090419;28;20828;-74
2021/10/31 11:53:43;;;;;;;4.50;3.93;;;15.80;99.90;;;;;;5070041;28;20505;-73
2021/10/31 11:56:27;;;;;;;7.00;5.30;;;15.90;99.90;;;;;;5069991;28;20432;-73
2021/10/31 11:59:05;;;;;;;6.23;5.63;;;15.90;99.90;;;;;;5070021;28;20922;-74
2021/10/31 12:04:33;;;;;;;3.20;2.90;;;15.90;99.90;;;;;;5070505;28;20653;-74
2021/10/31 12:07:09;;;;;;;3.50;2.60;;;15.90;99.90;;;;;;5070357;28;20481;-73
2021/10/31 12:09:34;;;;;;;3.87;3.10;;;15.90;99.90;;;;;;5055950;28;20409;-73
2021/10/31 12:12:06;;;;;;;4.70;4.30;;;15.90;99.90;;;;;;5049937;28;20764;-73
2021/10/31 12:17:26;;;;;;;3.57;2.87;;;15.90;99.90;;;;;;5110766;27;20539;-73
2021/10/31 12:19:53;;;;;;;16.43;14.03;;;15.90;99.90;;;;;;5110445;28;20478;-74
2021/10/31 12:25:09;;;;;;;4.10;3.30;;;15.90;99.90;;;;;;5089374;27;20499;-74
2021/10/31 12:30:40;;;;;;;11.27;10.20;;;15.90;99.90;;;;;;5068020;28;20542;-73
2021/10/31 12:33:12;;;;;;;3.90;2.80;;;15.90;99.90;;;;;;5069241;28;20394;-73
2021/10/31 12:35:40;;;;;;;2.70;2.20;;;15.90;99.90;;;;;;5069673;28;20405;-73
2021/10/31 12:43:46;;;;;;;2.33;2.10;;;15.90;99.90;;;;;;5095373;27;20514;-73
2021/10/31 12:46:15;;;;;;;3.63;2.70;;;15.90;99.90;;;;;;5090410;28;20424;-73
2021/10/31 12:48:41;;;;;;;2.90;2.60;;;15.90;99.90;;;;;;5090021;28;20389;-73
2021/10/31 12:51:12;;;;;;;2.53;1.93;;;16.00;99.90;;;;;;5090107;28;20434;-73
2021/10/31 12:53:39;;;;;;;2.63;2.43;;;16.00;99.90;;;;;;5089848;28;20166;-74
2021/10/31 12:56:06;;;;;;;3.20;3.00;;;16.00;99.90;;;;;;5090201;28;20393;-73
2021/10/31 12:58:32;;;;;;;3.47;2.67;;;16.00;99.90;;;;;;5089937;28;20905;-73
2021/10/31 13:00:58;;;;;;;3.60;2.67;;;16.00;99.90;;;;;;5088760;28;20409;-73
2021/10/31 13:03:24;;;;;;;2.40;2.20;;;16.00;99.90;;;;;;5076929;28;20206;-73
2021/10/31 13:05:51;;;;;;;3.77;2.43;;;16.00;99.90;;;;;;5069630;28;20390;-73
2021/10/31 13:08:19;;;;;;;2.40;2.20;;;16.00;99.90;;;;;;5069417;28;21005;-73
2021/10/31 13:10:49;;;;;;;2.57;2.37;;;16.00;99.90;;;;;;5069637;28;20828;-74
2021/10/31 13:13:17;;;;;;;3.17;2.95;;;16.10;99.90;;;;;;5068937;28;20987;-73
2021/10/31 13:15:46;;;;;;;3.07;2.77;;;16.10;99.90;;;;;;5069015;28;20185;-73
2021/10/31 13:20:59;;;;;;;2.43;2.23;;;16.10;99.90;;;;;;5090288;28;20511;-74
2021/10/31 13:23:27;;;;;;;2.73;2.53;;;16.10;99.90;;;;;;5090042;28;20481;-74
2021/10/31 13:25:58;;;;;;;3.00;2.70;;;16.20;99.90;;;;;;5090200;28;20389;-74
2021/10/31 13:34:00;;;;;;;4.60;3.53;;;16.20;99.90;;;;;;5064425;28;20521;-75
2021/10/31 13:36:34;;;;;;;3.27;2.97;;;16.20;99.90;;;;;;5049790;28;20383;-75
2021/10/31 13:41:45;;;;;;;2.93;2.10;;;16.30;99.90;;;;;;5070076;28;20516;-75
2021/10/31 13:47:04;;;;;;;2.50;1.70;;;16.30;99.90;;;;;;5069902;28;21050;-73
2021/10/31 13:49:31;;;;;;;3.53;2.73;;;16.30;99.90;;;;;;5069855;28;20379;-73
2021/10/31 13:51:57;;;;;;;3.10;2.80;;;16.30;99.90;;;;;;5053352;28;20414;-74